sensor_id;sensor_type;location;lat;lon;timestamp;P1;durP1;ratioP1;P2;durP2;ratioP2
6117;SDS011;3089;48.202;11.510;2024-01-30T00:00:39;15.20;;;8.13;;
6117;SDS011;3089;48.202;11.510;2024-01-30T00:03:07;28.43;;;7.93;;
6117;SDS011;3089;48.202;11.510;2024-01-30T00:05:35;19.60;;;8.93;;
6117;SDS011;3089;48.202;11.510;2024-01-30T00:08:03;18.47;;;7.03;;
6117;SDS011;3089;48.202;11.510;2024-01-30T00:10:32;16.80;;;8.50;;
6117;SDS011;3089;48.202;11.510;2024-01-30T00:13:00;24.33;;;8.70;;
6117;SDS011;3089;48.202;11.510;2024-01-30T00:15:28;24.73;;;7.53;;
6117;SDS011;3089;48.202;11.510;2024-01-30T00:17:57;21.87;;;8.87;;
6117;SDS011;3089;48.202;11.510;2024-01-30T00:20:25;20.83;;;7.90;;
6117;SDS011;3089;48.202;11.510;2024-01-30T00:22:53;18.00;;;7.93;;
6117;SDS011;3089;48.202;11.510;2024-01-30T00:25:21;15.80;;;7.20;;
6117;SDS011;3089;48.202;11.510;2024-01-30T00:27:49;20.60;;;9.00;;
6117;SDS011;3089;48.202;11.510;2024-01-30T00:30:17;19.07;;;8.07;;
6117;SDS011;3089;48.202;11.510;2024-01-30T00:32:45;17.67;;;8.50;;
6117;SDS011;3089;48.202;11.510;2024-01-30T00:35:15;15.63;;;7.63;;
6117;SDS011;3089;48.202;11.510;2024-01-30T00:37:46;16.17;;;8.00;;
6117;SDS011;3089;48.202;11.510;2024-01-30T00:40:14;19.63;;;7.43;;
6117;SDS011;3089;48.202;11.510;2024-01-30T00:42:44;24.53;;;8.87;;
6117;SDS011;3089;48.202;11.510;2024-01-30T00:45:12;12.87;;;6.77;;
6117;SDS011;3089;48.202;11.510;2024-01-30T00:47:41;18.87;;;8.07;;
6117;SDS011;3089;48.202;11.510;2024-01-30T00:50:09;18.83;;;7.50;;
6117;SDS011;3089;48.202;11.510;2024-01-30T00:52:38;16.37;;;7.60;;
6117;SDS011;3089;48.202;11.510;2024-01-30T00:55:08;16.80;;;8.40;;
6117;SDS011;3089;48.202;11.510;2024-01-30T00:57:36;14.83;;;8.40;;
6117;SDS011;3089;48.202;11.510;2024-01-30T01:00:04;17.13;;;6.97;;
6117;SDS011;3089;48.202;11.510;2024-01-30T01:02:34;13.47;;;7.73;;
6117;SDS011;3089;48.202;11.510;2024-01-30T01:05:03;15.20;;;7.43;;
6117;SDS011;3089;48.202;11.510;2024-01-30T01:07:31;18.27;;;7.80;;
6117;SDS011;3089;48.202;11.510;2024-01-30T01:10:01;15.90;;;7.73;;
6117;SDS011;3089;48.202;11.510;2024-01-30T01:12:30;18.43;;;7.73;;
6117;SDS011;3089;48.202;11.510;2024-01-30T01:14:58;18.33;;;7.63;;
6117;SDS011;3089;48.202;11.510;2024-01-30T01:17:25;15.50;;;6.90;;
6117;SDS011;3089;48.202;11.510;2024-01-30T01:19:54;23.17;;;8.10;;
6117;SDS011;3089;48.202;11.510;2024-01-30T01:22:22;16.13;;;6.90;;
6117;SDS011;3089;48.202;11.510;2024-01-30T01:24:50;22.87;;;8.13;;
6117;SDS011;3089;48.202;11.510;2024-01-30T01:27:19;18.13;;;7.77;;
6117;SDS011;3089;48.202;11.510;2024-01-30T01:29:47;17.10;;;8.53;;
6117;SDS011;3089;48.202;11.510;2024-01-30T01:32:15;18.80;;;8.83;;
6117;SDS011;3089;48.202;11.510;2024-01-30T01:34:43;17.63;;;8.20;;
6117;SDS011;3089;48.202;11.510;2024-01-30T01:37:11;22.10;;;7.63;;
6117;SDS011;3089;48.202;11.510;2024-01-30T01:39:39;13.07;;;6.83;;
6117;SDS011;3089;48.202;11.510;2024-01-30T01:42:07;18.17;;;7.83;;
6117;SDS011;3089;48.202;11.510;2024-01-30T01:44:37;15.93;;;7.10;;
6117;SDS011;3089;48.202;11.510;2024-01-30T01:47:05;13.37;;;7.33;;
6117;SDS011;3089;48.202;11.510;2024-01-30T01:49:33;16.90;;;6.53;;
6117;SDS011;3089;48.202;11.510;2024-01-30T01:52:01;16.33;;;8.33;;
6117;SDS011;3089;48.202;11.510;2024-01-30T01:54:29;17.57;;;7.67;;
6117;SDS011;3089;48.202;11.510;2024-01-30T01:56:58;18.60;;;7.50;;
6117;SDS011;3089;48.202;11.510;2024-01-30T01:59:26;15.30;;;6.90;;
6117;SDS011;3089;48.202;11.510;2024-01-30T02:01:56;12.40;;;7.10;;
6117;SDS011;3089;48.202;11.510;2024-01-30T02:04:24;20.60;;;8.70;;
6117;SDS011;3089;48.202;11.510;2024-01-30T02:06:52;19.33;;;7.67;;
6117;SDS011;3089;48.202;11.510;2024-01-30T02:09:20;17.67;;;8.23;;
6117;SDS011;3089;48.202;11.510;2024-01-30T02:11:48;19.77;;;8.27;;
6117;SDS011;3089;48.202;11.510;2024-01-30T02:14:16;17.90;;;8.27;;
6117;SDS011;3089;48.202;11.510;2024-01-30T02:16:45;19.03;;;7.47;;
6117;SDS011;3089;48.202;11.510;2024-01-30T02:19:14;15.97;;;7.83;;
6117;SDS011;3089;48.202;11.510;2024-01-30T02:21:43;12.70;;;6.73;;
6117;SDS011;3089;48.202;11.510;2024-01-30T02:24:12;15.50;;;7.47;;
6117;SDS011;3089;48.202;11.510;2024-01-30T02:26:40;16.50;;;7.47;;
6117;SDS011;3089;48.202;11.510;2024-01-30T02:29:08;16.70;;;8.10;;
6117;SDS011;3089;48.202;11.510;2024-01-30T02:31:36;16.83;;;7.37;;
6117;SDS011;3089;48.202;11.510;2024-01-30T02:34:04;16.13;;;6.90;;
6117;SDS011;3089;48.202;11.510;2024-01-30T02:36:32;18.30;;;6.70;;
6117;SDS011;3089;48.202;11.510;2024-01-30T02:39:01;18.30;;;7.30;;
6117;SDS011;3089;48.202;11.510;2024-01-30T02:41:29;17.27;;;7.30;;
6117;SDS011;3089;48.202;11.510;2024-01-30T02:43:57;18.03;;;6.93;;
6117;SDS011;3089;48.202;11.510;2024-01-30T02:46:25;11.83;;;5.93;;
6117;SDS011;3089;48.202;11.510;2024-01-30T02:48:53;13.00;;;6.80;;
6117;SDS011;3089;48.202;11.510;2024-01-30T02:51:21;13.17;;;5.83;;
6117;SDS011;3089;48.202;11.510;2024-01-30T02:53:50;11.90;;;6.30;;
6117;SDS011;3089;48.202;11.510;2024-01-30T02:56:19;16.17;;;5.53;;
6117;SDS011;3089;48.202;11.510;2024-01-30T02:58:47;11.47;;;6.37;;
6117;SDS011;3089;48.202;11.510;2024-01-30T03:01:15;17.03;;;8.03;;
6117;SDS011;3089;48.202;11.510;2024-01-30T03:03:43;15.30;;;6.40;;
6117;SDS011;3089;48.202;11.510;2024-01-30T03:06:11;12.93;;;6.37;;
6117;SDS011;3089;48.202;11.510;2024-01-30T03:08:41;24.13;;;6.93;;
6117;SDS011;3089;48.202;11.510;2024-01-30T03:11:09;13.40;;;6.70;;
6117;SDS011;3089;48.202;11.510;2024-01-30T03:13:38;12.33;;;5.47;;
6117;SDS011;3089;48.202;11.510;2024-01-30T03:16:06;10.23;;;5.17;;
6117;SDS011;3089;48.202;11.510;2024-01-30T03:18:36;9.10;;;4.83;;
6117;SDS011;3089;48.202;11.510;2024-01-30T03:21:04;10.33;;;5.00;;
6117;SDS011;3089;48.202;11.510;2024-01-30T03:23:32;14.63;;;6.27;;
6117;SDS011;3089;48.202;11.510;2024-01-30T03:26:00;10.70;;;4.33;;
6117;SDS011;3089;48.202;11.510;2024-01-30T03:28:30;12.40;;;5.57;;
6117;SDS011;3089;48.202;11.510;2024-01-30T03:30:59;14.20;;;6.10;;
6117;SDS011;3089;48.202;11.510;2024-01-30T03:33:27;10.53;;;4.20;;
6117;SDS011;3089;48.202;11.510;2024-01-30T03:35:55;12.67;;;5.03;;
6117;SDS011;3089;48.202;11.510;2024-01-30T03:38:23;14.07;;;5.50;;
6117;SDS011;3089;48.202;11.510;2024-01-30T03:40:51;10.63;;;5.30;;
6117;SDS011;3089;48.202;11.510;2024-01-30T03:43:19;11.40;;;5.20;;
6117;SDS011;3089;48.202;11.510;2024-01-30T03:45:47;12.77;;;5.40;;
6117;SDS011;3089;48.202;11.510;2024-01-30T03:48:16;13.13;;;5.63;;
6117;SDS011;3089;48.202;11.510;2024-01-30T03:50:46;9.23;;;4.30;;
6117;SDS011;3089;48.202;11.510;2024-01-30T03:53:14;13.30;;;5.40;;
6117;SDS011;3089;48.202;11.510;2024-01-30T03:55:42;13.30;;;5.80;;
6117;SDS011;3089;48.202;11.510;2024-01-30T03:58:10;11.87;;;5.37;;
6117;SDS011;3089;48.202;11.510;2024-01-30T04:00:38;18.80;;;6.27;;
6117;SDS011;3089;48.202;11.510;2024-01-30T04:03:07;12.20;;;4.77;;
6117;SDS011;3089;48.202;11.510;2024-01-30T04:05:36;13.37;;;4.70;;
6117;SDS011;3089;48.202;11.510;2024-01-30T04:08:04;14.70;;;6.00;;
6117;SDS011;3089;48.202;11.510;2024-01-30T04:10:33;15.20;;;5.07;;
6117;SDS011;3089;48.202;11.510;2024-01-30T04:13:01;13.93;;;5.23;;
6117;SDS011;3089;48.202;11.510;2024-01-30T04:15:29;13.17;;;6.07;;
6117;SDS011;3089;48.202;11.510;2024-01-30T04:17:57;15.50;;;5.30;;
6117;SDS011;3089;48.202;11.510;2024-01-30T04:20:25;13.27;;;5.50;;
6117;SDS011;3089;48.202;11.510;2024-01-30T04:22:54;12.60;;;5.40;;
6117;SDS011;3089;48.202;11.510;2024-01-30T04:25:22;12.30;;;5.50;;
6117;SDS011;3089;48.202;11.510;2024-01-30T04:27:50;14.70;;;5.03;;
6117;SDS011;3089;48.202;11.510;2024-01-30T04:30:18;11.73;;;5.70;;
6117;SDS011;3089;48.202;11.510;2024-01-30T04:32:46;9.50;;;4.43;;
6117;SDS011;3089;48.202;11.510;2024-01-30T04:35:14;14.87;;;6.00;;
6117;SDS011;3089;48.202;11.510;2024-01-30T04:37:43;11.77;;;5.10;;
6117;SDS011;3089;48.202;11.510;2024-01-30T04:40:12;10.83;;;5.13;;
6117;SDS011;3089;48.202;11.510;2024-01-30T04:42:40;12.07;;;4.60;;
6117;SDS011;3089;48.202;11.510;2024-01-30T04:45:09;8.63;;;4.80;;
6117;SDS011;3089;48.202;11.510;2024-01-30T04:47:37;11.57;;;4.33;;
6117;SDS011;3089;48.202;11.510;2024-01-30T04:50:06;8.17;;;4.23;;
6117;SDS011;3089;48.202;11.510;2024-01-30T04:52:35;10.03;;;4.10;;
6117;SDS011;3089;48.202;11.510;2024-01-30T04:55:03;8.37;;;4.43;;
6117;SDS011;3089;48.202;11.510;2024-01-30T04:57:33;8.60;;;3.97;;
6117;SDS011;3089;48.202;11.510;2024-01-30T05:00:01;10.53;;;3.97;;
6117;SDS011;3089;48.202;11.510;2024-01-30T05:02:29;7.83;;;3.43;;
6117;SDS011;3089;48.202;11.510;2024-01-30T05:04:57;17.93;;;4.97;;
6117;SDS011;3089;48.202;11.510;2024-01-30T05:07:25;8.60;;;4.77;;
6117;SDS011;3089;48.202;11.510;2024-01-30T05:09:53;12.27;;;4.50;;
6117;SDS011;3089;48.202;11.510;2024-01-30T05:12:25;11.10;;;4.73;;
6117;SDS011;3089;48.202;11.510;2024-01-30T05:14:54;10.17;;;4.50;;
6117;SDS011;3089;48.202;11.510;2024-01-30T05:17:22;10.30;;;4.13;;
6117;SDS011;3089;48.202;11.510;2024-01-30T05:19:50;10.93;;;3.50;;
6117;SDS011;3089;48.202;11.510;2024-01-30T05:22:18;6.27;;;3.57;;
6117;SDS011;3089;48.202;11.510;2024-01-30T05:24:46;7.60;;;3.83;;
6117;SDS011;3089;48.202;11.510;2024-01-30T05:27:14;8.03;;;3.77;;
6117;SDS011;3089;48.202;11.510;2024-01-30T05:29:42;11.90;;;4.63;;
6117;SDS011;3089;48.202;11.510;2024-01-30T05:32:12;7.43;;;3.67;;
6117;SDS011;3089;48.202;11.510;2024-01-30T05:34:40;9.90;;;4.13;;
6117;SDS011;3089;48.202;11.510;2024-01-30T05:37:08;7.67;;;3.53;;
6117;SDS011;3089;48.202;11.510;2024-01-30T05:39:40;8.40;;;3.47;;
6117;SDS011;3089;48.202;11.510;2024-01-30T05:42:08;9.73;;;3.83;;
6117;SDS011;3089;48.202;11.510;2024-01-30T05:44:36;15.70;;;2.93;;
6117;SDS011;3089;48.202;11.510;2024-01-30T05:47:04;10.10;;;4.50;;
6117;SDS011;3089;48.202;11.510;2024-01-30T05:49:34;13.00;;;4.63;;
6117;SDS011;3089;48.202;11.510;2024-01-30T05:52:03;9.73;;;3.17;;
6117;SDS011;3089;48.202;11.510;2024-01-30T05:54:32;9.23;;;4.00;;
6117;SDS011;3089;48.202;11.510;2024-01-30T05:57:00;10.18;;;4.30;;
6117;SDS011;3089;48.202;11.510;2024-01-30T05:59:28;6.67;;;3.80;;
6117;SDS011;3089;48.202;11.510;2024-01-30T06:01:55;7.23;;;3.00;;
6117;SDS011;3089;48.202;11.510;2024-01-30T06:04:24;7.10;;;2.80;;
6117;SDS011;3089;48.202;11.510;2024-01-30T06:06:53;8.60;;;3.70;;
6117;SDS011;3089;48.202;11.510;2024-01-30T06:09:21;9.47;;;4.47;;
6117;SDS011;3089;48.202;11.510;2024-01-30T06:11:49;7.10;;;3.80;;
6117;SDS011;3089;48.202;11.510;2024-01-30T06:14:17;5.23;;;3.07;;
6117;SDS011;3089;48.202;11.510;2024-01-30T06:16:46;6.97;;;3.20;;
6117;SDS011;3089;48.202;11.510;2024-01-30T06:19:14;6.80;;;3.50;;
6117;SDS011;3089;48.202;11.510;2024-01-30T06:21:42;9.53;;;3.77;;
6117;SDS011;3089;48.202;11.510;2024-01-30T06:24:12;10.17;;;3.87;;
6117;SDS011;3089;48.202;11.510;2024-01-30T06:26:41;7.70;;;2.97;;
6117;SDS011;3089;48.202;11.510;2024-01-30T06:29:09;7.57;;;3.20;;
6117;SDS011;3089;48.202;11.510;2024-01-30T06:31:39;8.00;;;3.40;;
6117;SDS011;3089;48.202;11.510;2024-01-30T06:34:08;7.00;;;3.10;;
6117;SDS011;3089;48.202;11.510;2024-01-30T06:36:38;10.07;;;3.80;;
6117;SDS011;3089;48.202;11.510;2024-01-30T06:39:06;10.93;;;3.00;;
6117;SDS011;3089;48.202;11.510;2024-01-30T06:41:35;7.03;;;3.90;;
6117;SDS011;3089;48.202;11.510;2024-01-30T06:44:03;7.60;;;3.60;;
6117;SDS011;3089;48.202;11.510;2024-01-30T06:46:32;7.43;;;3.93;;
6117;SDS011;3089;48.202;11.510;2024-01-30T06:49:00;8.10;;;3.40;;
6117;SDS011;3089;48.202;11.510;2024-01-30T06:51:28;12.97;;;3.30;;
6117;SDS011;3089;48.202;11.510;2024-01-30T06:53:56;7.13;;;3.50;;
6117;SDS011;3089;48.202;11.510;2024-01-30T06:56:25;9.30;;;4.30;;
6117;SDS011;3089;48.202;11.510;2024-01-30T06:58:54;10.53;;;3.77;;
6117;SDS011;3089;48.202;11.510;2024-01-30T07:01:27;9.20;;;4.13;;
6117;SDS011;3089;48.202;11.510;2024-01-30T07:03:55;7.17;;;3.77;;
6117;SDS011;3089;48.202;11.510;2024-01-30T07:06:24;11.10;;;3.83;;
6117;SDS011;3089;48.202;11.510;2024-01-30T07:08:52;7.87;;;3.97;;
6117;SDS011;3089;48.202;11.510;2024-01-30T07:11:21;6.97;;;3.33;;
6117;SDS011;3089;48.202;11.510;2024-01-30T07:13:50;11.70;;;4.20;;
6117;SDS011;3089;48.202;11.510;2024-01-30T07:16:19;12.13;;;4.13;;
6117;SDS011;3089;48.202;11.510;2024-01-30T07:18:48;7.17;;;3.43;;
6117;SDS011;3089;48.202;11.510;2024-01-30T07:21:16;13.10;;;4.40;;
6117;SDS011;3089;48.202;11.510;2024-01-30T07:23:44;8.23;;;3.30;;
6117;SDS011;3089;48.202;11.510;2024-01-30T07:26:13;9.93;;;3.93;;
6117;SDS011;3089;48.202;11.510;2024-01-30T07:28:41;5.80;;;3.47;;
6117;SDS011;3089;48.202;11.510;2024-01-30T07:31:10;13.20;;;4.87;;
6117;SDS011;3089;48.202;11.510;2024-01-30T07:33:39;8.80;;;4.13;;
6117;SDS011;3089;48.202;11.510;2024-01-30T07:36:07;8.90;;;3.97;;
6117;SDS011;3089;48.202;11.510;2024-01-30T07:38:36;8.63;;;3.97;;
6117;SDS011;3089;48.202;11.510;2024-01-30T07:41:04;8.63;;;3.60;;
6117;SDS011;3089;48.202;11.510;2024-01-30T07:43:32;9.17;;;3.47;;
6117;SDS011;3089;48.202;11.510;2024-01-30T07:46:00;9.50;;;4.30;;
6117;SDS011;3089;48.202;11.510;2024-01-30T07:48:29;10.20;;;4.10;;
6117;SDS011;3089;48.202;11.510;2024-01-30T07:50:58;10.33;;;4.67;;
6117;SDS011;3089;48.202;11.510;2024-01-30T07:53:26;9.87;;;3.63;;
6117;SDS011;3089;48.202;11.510;2024-01-30T07:55:54;10.77;;;3.57;;
6117;SDS011;3089;48.202;11.510;2024-01-30T07:58:22;7.20;;;3.67;;
6117;SDS011;3089;48.202;11.510;2024-01-30T08:00:53;10.83;;;3.07;;
6117;SDS011;3089;48.202;11.510;2024-01-30T08:03:23;6.40;;;3.37;;
6117;SDS011;3089;48.202;11.510;2024-01-30T08:05:51;13.83;;;3.93;;
6117;SDS011;3089;48.202;11.510;2024-01-30T08:08:20;8.70;;;4.07;;
6117;SDS011;3089;48.202;11.510;2024-01-30T08:10:48;10.30;;;3.90;;
6117;SDS011;3089;48.202;11.510;2024-01-30T08:13:16;12.97;;;4.63;;
6117;SDS011;3089;48.202;11.510;2024-01-30T08:15:44;14.43;;;3.97;;
6117;SDS011;3089;48.202;11.510;2024-01-30T08:18:12;11.03;;;3.70;;
6117;SDS011;3089;48.202;11.510;2024-01-30T08:20:40;9.83;;;4.40;;
6117;SDS011;3089;48.202;11.510;2024-01-30T08:23:08;13.50;;;4.63;;
6117;SDS011;3089;48.202;11.510;2024-01-30T08:25:38;8.50;;;3.50;;
6117;SDS011;3089;48.202;11.510;2024-01-30T08:28:06;16.80;;;4.60;;
6117;SDS011;3089;48.202;11.510;2024-01-30T08:30:34;10.03;;;3.90;;
6117;SDS011;3089;48.202;11.510;2024-01-30T08:33:03;15.90;;;3.27;;
6117;SDS011;3089;48.202;11.510;2024-01-30T08:35:31;10.13;;;3.73;;
6117;SDS011;3089;48.202;11.510;2024-01-30T08:38:00;12.87;;;4.43;;
6117;SDS011;3089;48.202;11.510;2024-01-30T08:40:29;9.13;;;3.87;;
6117;SDS011;3089;48.202;11.510;2024-01-30T08:42:59;8.00;;;3.33;;
6117;SDS011;3089;48.202;11.510;2024-01-30T08:45:27;6.57;;;2.97;;
6117;SDS011;3089;48.202;11.510;2024-01-30T08:47:55;6.40;;;3.37;;
6117;SDS011;3089;48.202;11.510;2024-01-30T08:50:23;5.57;;;3.00;;
6117;SDS011;3089;48.202;11.510;2024-01-30T08:52:51;7.90;;;3.83;;
6117;SDS011;3089;48.202;11.510;2024-01-30T08:55:19;4.57;;;2.77;;
6117;SDS011;3089;48.202;11.510;2024-01-30T08:57:47;10.73;;;3.40;;
6117;SDS011;3089;48.202;11.510;2024-01-30T09:00:16;10.27;;;3.47;;
6117;SDS011;3089;48.202;11.510;2024-01-30T09:02:45;6.07;;;3.10;;
6117;SDS011;3089;48.202;11.510;2024-01-30T09:05:13;7.67;;;3.17;;
6117;SDS011;3089;48.202;11.510;2024-01-30T09:07:41;13.23;;;3.57;;
6117;SDS011;3089;48.202;11.510;2024-01-30T09:10:10;6.33;;;2.83;;
6117;SDS011;3089;48.202;11.510;2024-01-30T09:12:40;9.27;;;3.63;;
6117;SDS011;3089;48.202;11.510;2024-01-30T09:15:08;4.63;;;2.67;;
6117;SDS011;3089;48.202;11.510;2024-01-30T09:17:38;7.77;;;3.47;;
6117;SDS011;3089;48.202;11.510;2024-01-30T09:20:06;7.97;;;3.07;;
6117;SDS011;3089;48.202;11.510;2024-01-30T09:22:35;9.83;;;3.20;;
6117;SDS011;3089;48.202;11.510;2024-01-30T09:25:04;6.60;;;2.83;;
6117;SDS011;3089;48.202;11.510;2024-01-30T09:27:32;7.93;;;3.80;;
6117;SDS011;3089;48.202;11.510;2024-01-30T09:30:00;13.37;;;4.10;;
6117;SDS011;3089;48.202;11.510;2024-01-30T09:32:29;7.93;;;3.40;;
6117;SDS011;3089;48.202;11.510;2024-01-30T09:34:58;10.10;;;3.60;;
6117;SDS011;3089;48.202;11.510;2024-01-30T09:37:26;6.50;;;3.07;;
6117;SDS011;3089;48.202;11.510;2024-01-30T09:39:54;14.37;;;2.97;;
6117;SDS011;3089;48.202;11.510;2024-01-30T09:42:25;11.10;;;3.10;;
6117;SDS011;3089;48.202;11.510;2024-01-30T09:44:55;5.97;;;2.90;;
6117;SDS011;3089;48.202;11.510;2024-01-30T09:47:24;7.87;;;2.70;;
6117;SDS011;3089;48.202;11.510;2024-01-30T09:49:53;10.77;;;2.73;;
6117;SDS011;3089;48.202;11.510;2024-01-30T09:52:23;6.23;;;3.07;;
6117;SDS011;3089;48.202;11.510;2024-01-30T09:54:51;10.53;;;2.97;;
6117;SDS011;3089;48.202;11.510;2024-01-30T09:57:20;8.50;;;3.07;;
6117;SDS011;3089;48.202;11.510;2024-01-30T09:59:48;6.20;;;2.93;;
6117;SDS011;3089;48.202;11.510;2024-01-30T10:02:18;8.73;;;2.80;;
6117;SDS011;3089;48.202;11.510;2024-01-30T10:04:47;10.03;;;3.87;;
6117;SDS011;3089;48.202;11.510;2024-01-30T10:07:16;5.90;;;3.10;;
6117;SDS011;3089;48.202;11.510;2024-01-30T10:09:45;18.63;;;3.63;;
6117;SDS011;3089;48.202;11.510;2024-01-30T10:12:15;6.57;;;3.10;;
6117;SDS011;3089;48.202;11.510;2024-01-30T10:14:43;8.47;;;3.50;;
6117;SDS011;3089;48.202;11.510;2024-01-30T10:17:12;9.97;;;3.63;;
6117;SDS011;3089;48.202;11.510;2024-01-30T10:19:53;7.90;;;2.83;;
6117;SDS011;3089;48.202;11.510;2024-01-30T10:22:22;7.90;;;3.30;;
6117;SDS011;3089;48.202;11.510;2024-01-30T10:24:51;6.20;;;3.17;;
6117;SDS011;3089;48.202;11.510;2024-01-30T10:27:23;5.70;;;3.13;;
6117;SDS011;3089;48.202;11.510;2024-01-30T10:29:53;6.70;;;2.83;;
6117;SDS011;3089;48.202;11.510;2024-01-30T10:32:21;6.50;;;2.80;;
6117;SDS011;3089;48.202;11.510;2024-01-30T10:34:49;9.43;;;2.90;;
6117;SDS011;3089;48.202;11.510;2024-01-30T10:37:17;10.53;;;2.80;;
6117;SDS011;3089;48.202;11.510;2024-01-30T10:39:49;8.10;;;3.00;;
6117;SDS011;3089;48.202;11.510;2024-01-30T10:42:21;18.03;;;3.37;;
6117;SDS011;3089;48.202;11.510;2024-01-30T10:44:56;5.57;;;2.60;;
6117;SDS011;3089;48.202;11.510;2024-01-30T10:47:28;8.93;;;3.50;;
6117;SDS011;3089;48.202;11.510;2024-01-30T10:49:56;7.07;;;3.07;;
6117;SDS011;3089;48.202;11.510;2024-01-30T10:52:25;7.13;;;2.60;;
6117;SDS011;3089;48.202;11.510;2024-01-30T10:54:57;9.00;;;3.00;;
6117;SDS011;3089;48.202;11.510;2024-01-30T10:57:26;8.83;;;3.07;;
6117;SDS011;3089;48.202;11.510;2024-01-30T10:59:56;4.23;;;2.27;;
6117;SDS011;3089;48.202;11.510;2024-01-30T11:02:25;5.17;;;2.53;;
6117;SDS011;3089;48.202;11.510;2024-01-30T11:04:55;8.37;;;2.80;;
6117;SDS011;3089;48.202;11.510;2024-01-30T11:07:25;4.20;;;2.00;;
6117;SDS011;3089;48.202;11.510;2024-01-30T11:10:00;12.23;;;2.20;;
6117;SDS011;3089;48.202;11.510;2024-01-30T11:12:31;4.90;;;2.07;;
6117;SDS011;3089;48.202;11.510;2024-01-30T11:15:04;5.27;;;1.70;;
6117;SDS011;3089;48.202;11.510;2024-01-30T11:17:43;9.03;;;2.07;;
6117;SDS011;3089;48.202;11.510;2024-01-30T11:20:14;4.43;;;1.97;;
6117;SDS011;3089;48.202;11.510;2024-01-30T11:22:44;7.33;;;2.27;;
6117;SDS011;3089;48.202;11.510;2024-01-30T11:25:15;21.30;;;2.90;;
6117;SDS011;3089;48.202;11.510;2024-01-30T11:27:44;6.20;;;2.00;;
6117;SDS011;3089;48.202;11.510;2024-01-30T11:30:20;5.00;;;1.50;;
6117;SDS011;3089;48.202;11.510;2024-01-30T11:32:59;3.23;;;1.30;;
6117;SDS011;3089;48.202;11.510;2024-01-30T11:35:29;6.80;;;1.80;;
6117;SDS011;3089;48.202;11.510;2024-01-30T11:37:59;3.23;;;1.40;;
6117;SDS011;3089;48.202;11.510;2024-01-30T11:40:29;5.00;;;1.47;;
6117;SDS011;3089;48.202;11.510;2024-01-30T11:43:00;4.10;;;1.30;;
6117;SDS011;3089;48.202;11.510;2024-01-30T11:45:29;4.80;;;1.67;;
6117;SDS011;3089;48.202;11.510;2024-01-30T11:47:57;4.03;;;1.33;;
6117;SDS011;3089;48.202;11.510;2024-01-30T11:50:27;5.73;;;1.60;;
6117;SDS011;3089;48.202;11.510;2024-01-30T11:52:56;4.63;;;1.50;;
6117;SDS011;3089;48.202;11.510;2024-01-30T11:55:25;9.17;;;2.07;;
6117;SDS011;3089;48.202;11.510;2024-01-30T11:57:59;4.23;;;1.80;;
6117;SDS011;3089;48.202;11.510;2024-01-30T12:00:28;4.83;;;1.80;;
6117;SDS011;3089;48.202;11.510;2024-01-30T12:02:57;4.03;;;1.87;;
6117;SDS011;3089;48.202;11.510;2024-01-30T12:05:27;8.23;;;1.90;;
6117;SDS011;3089;48.202;11.510;2024-01-30T12:07:56;6.30;;;2.00;;
6117;SDS011;3089;48.202;11.510;2024-01-30T12:10:27;6.77;;;2.00;;
6117;SDS011;3089;48.202;11.510;2024-01-30T12:12:55;5.47;;;1.60;;
6117;SDS011;3089;48.202;11.510;2024-01-30T12:15:26;15.20;;;2.33;;
6117;SDS011;3089;48.202;11.510;2024-01-30T12:18:03;4.80;;;2.20;;
6117;SDS011;3089;48.202;11.510;2024-01-30T12:20:32;5.47;;;2.10;;
6117;SDS011;3089;48.202;11.510;2024-01-30T12:23:00;6.10;;;2.10;;
6117;SDS011;3089;48.202;11.510;2024-01-30T12:25:28;6.03;;;2.40;;
6117;SDS011;3089;48.202;11.510;2024-01-30T12:27:57;3.53;;;1.80;;
6117;SDS011;3089;48.202;11.510;2024-01-30T12:30:27;6.60;;;2.13;;
6117;SDS011;3089;48.202;11.510;2024-01-30T12:32:56;7.30;;;2.10;;
6117;SDS011;3089;48.202;11.510;2024-01-30T12:35:24;9.57;;;2.30;;
6117;SDS011;3089;48.202;11.510;2024-01-30T12:37:56;7.07;;;1.93;;
6117;SDS011;3089;48.202;11.510;2024-01-30T12:40:24;5.33;;;1.90;;
6117;SDS011;3089;48.202;11.510;2024-01-30T12:42:52;8.33;;;2.60;;
6117;SDS011;3089;48.202;11.510;2024-01-30T12:45:21;5.83;;;2.00;;
6117;SDS011;3089;48.202;11.510;2024-01-30T12:47:51;5.77;;;2.00;;
6117;SDS011;3089;48.202;11.510;2024-01-30T12:50:19;6.10;;;2.10;;
6117;SDS011;3089;48.202;11.510;2024-01-30T12:52:47;18.43;;;2.37;;
6117;SDS011;3089;48.202;11.510;2024-01-30T12:55:16;4.70;;;2.13;;
6117;SDS011;3089;48.202;11.510;2024-01-30T12:57:44;6.20;;;2.07;;
6117;SDS011;3089;48.202;11.510;2024-01-30T13:00:13;4.53;;;1.63;;
6117;SDS011;3089;48.202;11.510;2024-01-30T13:02:43;6.90;;;1.90;;
6117;SDS011;3089;48.202;11.510;2024-01-30T13:05:13;7.27;;;2.27;;
6117;SDS011;3089;48.202;11.510;2024-01-30T13:07:41;6.63;;;3.47;;
6117;SDS011;3089;48.202;11.510;2024-01-30T13:10:10;5.73;;;2.60;;
6117;SDS011;3089;48.202;11.510;2024-01-30T13:12:38;6.93;;;2.03;;
6117;SDS011;3089;48.202;11.510;2024-01-30T13:15:06;5.27;;;2.23;;
6117;SDS011;3089;48.202;11.510;2024-01-30T13:17:34;6.33;;;2.17;;
6117;SDS011;3089;48.202;11.510;2024-01-30T13:20:03;7.90;;;2.50;;
6117;SDS011;3089;48.202;11.510;2024-01-30T13:22:38;7.35;;;2.42;;
6117;SDS011;3089;48.202;11.510;2024-01-30T13:25:07;5.77;;;2.20;;
6117;SDS011;3089;48.202;11.510;2024-01-30T13:27:35;8.93;;;2.50;;
6117;SDS011;3089;48.202;11.510;2024-01-30T13:30:06;11.80;;;2.30;;
6117;SDS011;3089;48.202;11.510;2024-01-30T13:32:35;6.83;;;2.43;;
6117;SDS011;3089;48.202;11.510;2024-01-30T13:35:04;5.07;;;2.50;;
6117;SDS011;3089;48.202;11.510;2024-01-30T13:37:32;5.60;;;2.00;;
6117;SDS011;3089;48.202;11.510;2024-01-30T13:40:03;3.63;;;1.70;;
6117;SDS011;3089;48.202;11.510;2024-01-30T13:42:39;4.73;;;2.40;;
6117;SDS011;3089;48.202;11.510;2024-01-30T13:45:07;12.20;;;2.50;;
6117;SDS011;3089;48.202;11.510;2024-01-30T13:47:37;5.40;;;2.00;;
6117;SDS011;3089;48.202;11.510;2024-01-30T13:50:05;5.33;;;1.83;;
6117;SDS011;3089;48.202;11.510;2024-01-30T13:52:34;5.57;;;2.20;;
6117;SDS011;3089;48.202;11.510;2024-01-30T13:55:11;6.27;;;2.37;;
6117;SDS011;3089;48.202;11.510;2024-01-30T13:57:40;7.33;;;2.40;;
6117;SDS011;3089;48.202;11.510;2024-01-30T14:00:08;4.30;;;2.00;;
6117;SDS011;3089;48.202;11.510;2024-01-30T14:02:37;5.47;;;1.90;;
6117;SDS011;3089;48.202;11.510;2024-01-30T14:05:06;5.00;;;2.20;;
6117;SDS011;3089;48.202;11.510;2024-01-30T14:10:04;7.20;;;2.57;;
6117;SDS011;3089;48.202;11.510;2024-01-30T14:12:38;5.00;;;2.30;;
6117;SDS011;3089;48.202;11.510;2024-01-30T14:15:07;7.93;;;1.90;;
6117;SDS011;3089;48.202;11.510;2024-01-30T14:17:52;7.00;;;2.20;;
6117;SDS011;3089;48.202;11.510;2024-01-30T14:20:21;4.83;;;2.17;;
6117;SDS011;3089;48.202;11.510;2024-01-30T14:22:49;4.70;;;2.10;;
6117;SDS011;3089;48.202;11.510;2024-01-30T14:25:17;6.60;;;2.60;;
6117;SDS011;3089;48.202;11.510;2024-01-30T14:27:47;6.90;;;2.70;;
6117;SDS011;3089;48.202;11.510;2024-01-30T14:30:15;7.40;;;3.20;;
6117;SDS011;3089;48.202;11.510;2024-01-30T14:32:44;6.73;;;2.40;;
6117;SDS011;3089;48.202;11.510;2024-01-30T14:35:13;8.47;;;3.30;;
6117;SDS011;3089;48.202;11.510;2024-01-30T14:37:41;10.07;;;3.70;;
6117;SDS011;3089;48.202;11.510;2024-01-30T14:40:09;8.67;;;2.90;;
6117;SDS011;3089;48.202;11.510;2024-01-30T14:42:37;7.93;;;2.50;;
6117;SDS011;3089;48.202;11.510;2024-01-30T14:45:07;7.97;;;3.40;;
6117;SDS011;3089;48.202;11.510;2024-01-30T14:47:35;7.47;;;3.57;;
6117;SDS011;3089;48.202;11.510;2024-01-30T14:50:04;5.23;;;3.07;;
6117;SDS011;3089;48.202;11.510;2024-01-30T14:52:35;7.80;;;3.60;;
6117;SDS011;3089;48.202;11.510;2024-01-30T14:55:03;11.00;;;2.50;;
6117;SDS011;3089;48.202;11.510;2024-01-30T14:57:32;6.90;;;3.03;;
6117;SDS011;3089;48.202;11.510;2024-01-30T15:00:01;10.43;;;3.30;;
6117;SDS011;3089;48.202;11.510;2024-01-30T15:02:31;5.47;;;2.60;;
6117;SDS011;3089;48.202;11.510;2024-01-30T15:04:59;4.70;;;2.47;;
6117;SDS011;3089;48.202;11.510;2024-01-30T15:07:27;4.87;;;2.50;;